Time;durP1;ratioP1;P1;durP2;ratioP2;P2;SDS_P1;SDS_P2;PMS_P1;PMS_P2;Temp;Humidity;BMP_temperature;BMP_pressure;BME280_temperature;BME280_humidity;BME280_pressure;Samples;Min_cycle;Max_cycle;Signal;HPM_P1;HPM_P2
2021/12/22 00:01:35;;;;;;;48.97;25.60;;;0.30;74.00;;;;;;5113581;28;20230;-59
2021/12/22 00:04:02;;;;;;;46.70;24.83;;;0.30;74.00;;;;;;5112075;28;20256;-60
2021/12/22 00:06:31;;;;;;;41.38;23.92;;;0.30;74.10;;;;;;5113235;28;20697;-60
2021/12/22 00:09:00;;;;;;;38.97;21.33;;;0.20;74.40;;;;;;5113470;28;20286;-60
2021/12/22 00:11:27;;;;;;;53.03;25.55;;;0.20;74.60;;;;;;5113517;28;20238;-60
2021/12/22 00:13:54;;;;;;;63.17;27.08;;;0.00;75.20;;;;;;5113404;28;20294;-61
2021/12/22 00:16:21;;;;;;;71.80;31.00;;;0.00;75.30;;;;;;5113361;28;20294;-61
2021/12/22 00:18:48;;;;;;;82.30;32.70;;;0.00;75.10;;;;;;5113367;27;20210;-60
2021/12/22 00:21:15;;;;;;;62.42;30.05;;;0.10;75.10;;;;;;5116045;28;20206;-60
2021/12/22 00:23:43;;;;;;;55.20;26.08;;;0.00;75.00;;;;;;5117669;28;20654;-61
2021/12/22 00:26:11;;;;;;;40.78;23.80;;;0.00;75.70;;;;;;5117484;28;20223;-60
2021/12/22 00:28:40;;;;;;;39.90;22.30;;;-0.10;75.70;;;;;;5117424;28;20672;-60
2021/12/22 00:31:11;;;;;;;34.55;21.60;;;-0.10;75.60;;;;;;5117491;28;20661;-60
2021/12/22 00:33:45;;;;;;;36.00;22.30;;;-0.10;75.50;;;;;;5117528;28;20199;-60
2021/12/22 00:36:12;;;;;;;31.38;20.35;;;-0.10;75.90;;;;;;5116125;28;20248;-60
2021/12/22 00:38:39;;;;;;;43.30;22.90;;;-0.30;76.20;;;;;;5117346;28;20294;-60
2021/12/22 00:41:06;;;;;;;39.30;21.42;;;-0.20;76.10;;;;;;5117276;27;20203;-60
2021/12/22 00:43:35;;;;;;;29.50;18.50;;;-0.20;76.10;;;;;;5117241;28;20209;-60
2021/12/22 00:46:02;;;;;;;25.65;18.38;;;-0.20;76.70;;;;;;5117032;28;20724;-60
2021/12/22 00:48:29;;;;;;;24.02;18.15;;;-0.20;76.70;;;;;;5117183;28;20696;-60
2021/12/22 00:50:56;;;;;;;26.15;17.63;;;-0.20;76.10;;;;;;5115643;28;20231;-59
2021/12/22 00:53:23;;;;;;;23.27;17.23;;;-0.20;76.00;;;;;;5117097;28;20202;-59
2021/12/22 00:55:50;;;;;;;26.10;17.83;;;-0.10;76.00;;;;;;5116978;28;20238;-61
2021/12/22 00:58:17;;;;;;;22.30;16.27;;;-0.10;75.90;;;;;;5117024;28;20314;-60
2021/12/22 01:00:47;;;;;;;24.40;16.95;;;-0.10;76.10;;;;;;5116759;27;20302;-60
2021/12/22 01:03:14;;;;;;;22.40;16.83;;;-0.10;76.40;;;;;;5116852;27;20227;-60
2021/12/22 01:05:41;;;;;;;22.25;17.33;;;-0.20;76.80;;;;;;5115503;28;20207;-59
2021/12/22 01:08:08;;;;;;;26.75;17.92;;;-0.30;76.50;;;;;;5116756;28;20195;-59
2021/12/22 01:10:35;;;;;;;25.48;19.13;;;-0.30;76.20;;;;;;5116683;28;20680;-59
2021/12/22 01:13:05;;;;;;;25.80;18.70;;;-0.40;77.00;;;;;;5116621;28;20203;-60
2021/12/22 01:15:33;;;;;;;24.45;17.85;;;-0.40;76.60;;;;;;5116550;28;20282;-60
2021/12/22 01:18:06;;;;;;;26.85;17.52;;;-0.50;77.30;;;;;;5116546;28;20688;-61
2021/12/22 01:20:38;;;;;;;24.42;17.83;;;-0.60;77.60;;;;;;5115089;28;20200;-59
2021/12/22 01:23:07;;;;;;;25.80;18.00;;;-0.70;77.70;;;;;;5116638;28;20264;-59
2021/12/22 01:25:41;;;;;;;26.75;18.10;;;-0.70;78.30;;;;;;5116457;28;20286;-59
2021/12/22 01:28:08;;;;;;;23.23;17.08;;;-0.80;79.10;;;;;;5116271;28;20643;-59
2021/12/22 01:30:36;;;;;;;21.77;17.02;;;-0.90;79.10;;;;;;5115669;28;20290;-59
2021/12/22 01:33:04;;;;;;;23.17;16.52;;;-0.90;79.20;;;;;;5115773;28;20199;-60
2021/12/22 01:35:34;;;;;;;25.50;17.33;;;-1.10;79.70;;;;;;5115008;28;20291;-60
2021/12/22 01:38:02;;;;;;;23.20;17.35;;;-1.10;80.10;;;;;;5116098;28;20279;-59
2021/12/22 01:40:29;;;;;;;27.77;17.00;;;-1.20;80.00;;;;;;5116122;28;20287;-59
2021/12/22 01:42:58;;;;;;;24.02;16.70;;;-1.30;80.20;;;;;;5116099;28;20195;-59
2021/12/22 01:45:51;;;;;;;25.55;17.77;;;-1.30;80.20;;;;;;5116111;28;20222;-59
2021/12/22 01:51:18;;;;;;;26.83;17.00;;;-1.20;80.70;;;;;;5071675;28;20237;-59
2021/12/22 01:53:47;;;;;;;26.55;17.00;;;-1.20;80.40;;;;;;5105847;28;20624;-60
2021/12/22 01:56:21;;;;;;;24.58;16.98;;;-1.20;80.50;;;;;;5115717;28;20226;-59
2021/12/22 01:58:50;;;;;;;40.55;18.10;;;-1.20;80.30;;;;;;5115800;28;20654;-59
2021/12/22 02:01:17;;;;;;;23.98;16.15;;;-1.20;80.30;;;;;;5115630;28;20291;-60
2021/12/22 02:03:49;;;;;;;26.92;16.73;;;-1.30;81.10;;;;;;5115680;28;20620;-59
2021/12/22 02:06:17;;;;;;;25.60;17.13;;;-1.40;80.90;;;;;;5114270;28;20238;-59
2021/12/22 02:08:45;;;;;;;24.38;16.33;;;-1.40;81.00;;;;;;5115579;28;20210;-59
2021/12/22 02:11:13;;;;;;;24.50;17.30;;;-1.40;80.90;;;;;;5115554;28;20200;-59
2021/12/22 02:13:44;;;;;;;24.27;17.38;;;-1.50;81.00;;;;;;5115558;28;20276;-59
2021/12/22 02:16:14;;;;;;;22.10;16.23;;;-1.50;81.00;;;;;;5115563;28;20207;-59
2021/12/22 02:18:47;;;;;;;29.50;17.80;;;-1.50;80.90;;;;;;5115406;28;20679;-59
2021/12/22 02:21:16;;;;;;;26.50;17.77;;;-1.50;80.90;;;;;;5113941;28;20204;-59
2021/12/22 02:23:44;;;;;;;25.77;17.02;;;-1.50;80.80;;;;;;5115260;28;20210;-59
2021/12/22 02:26:15;;;;;;;24.77;17.20;;;-1.50;80.60;;;;;;5115185;28;20291;-59
2021/12/22 02:28:45;;;;;;;24.35;17.85;;;-1.40;80.40;;;;;;5115224;28;20204;-59
2021/12/22 02:31:15;;;;;;;27.50;18.67;;;-1.50;81.10;;;;;;5115086;28;20596;-59
2021/12/22 02:33:45;;;;;;;23.80;17.42;;;-1.50;80.90;;;;;;5115150;28;20199;-59
2021/12/22 02:36:22;;;;;;;26.30;18.38;;;-1.60;81.00;;;;;;5113730;28;20203;-60
2021/12/22 02:38:52;;;;;;;24.52;18.02;;;-1.60;80.90;;;;;;5114865;28;20199;-59
2021/12/22 02:41:22;;;;;;;25.10;16.60;;;-1.60;81.20;;;;;;5115120;28;20206;-59
2021/12/22 02:43:51;;;;;;;29.15;17.33;;;-1.50;80.90;;;;;;5114676;28;20760;-60
2021/12/22 02:46:20;;;;;;;24.58;17.90;;;-1.50;81.10;;;;;;5114740;28;20227;-59
2021/12/22 02:48:48;;;;;;;30.15;18.45;;;-1.60;81.70;;;;;;5114840;28;20290;-59
2021/12/22 02:51:16;;;;;;;25.90;18.85;;;-1.60;81.40;;;;;;5113277;27;20713;-59
2021/12/22 02:53:48;;;;;;;28.45;18.35;;;-1.70;81.40;;;;;;5114691;28;20238;-59
2021/12/22 02:56:32;;;;;;;29.33;18.05;;;-1.70;81.40;;;;;;5114486;27;20215;-59
2021/12/22 02:59:06;;;;;;;24.67;17.25;;;-1.70;82.00;;;;;;5114635;28;20200;-59
2021/12/22 03:04:44;;;;;;;25.48;17.10;;;-1.60;81.30;;;;;;5089383;28;20524;-60
2021/12/22 03:07:14;;;;;;;23.05;17.50;;;-1.60;81.40;;;;;;5090364;28;20243;-60
2021/12/22 03:09:41;;;;;;;25.55;17.80;;;-1.70;82.20;;;;;;5090479;28;20644;-61
2021/12/22 03:12:12;;;;;;;29.27;18.35;;;-1.50;81.80;;;;;;5090280;28;20215;-60
2021/12/22 03:14:39;;;;;;;29.52;17.52;;;-1.40;81.00;;;;;;5090474;28;20652;-59
2021/12/22 03:17:06;;;;;;;24.95;16.88;;;-1.30;80.50;;;;;;5090343;28;20204;-61
2021/12/22 03:19:36;;;;;;;25.02;17.35;;;-1.30;80.30;;;;;;5088927;28;20200;-60
2021/12/22 03:22:05;;;;;;;24.17;17.02;;;-1.30;80.20;;;;;;5090170;28;20235;-59
2021/12/22 03:24:35;;;;;;;25.88;17.85;;;-1.30;80.10;;;;;;5090186;28;20204;-59
2021/12/22 03:27:03;;;;;;;29.67;17.83;;;-1.20;79.70;;;;;;5090096;28;20298;-59
2021/12/22 03:29:32;;;;;;;31.80;18.80;;;-1.30;79.80;;;;;;5090195;28;20200;-60
2021/12/22 03:31:59;;;;;;;26.05;17.30;;;-1.40;79.90;;;;;;5089994;28;20306;-59
2021/12/22 03:34:26;;;;;;;29.38;18.80;;;-1.40;79.90;;;;;;5088685;28;20243;-63
2021/12/22 03:36:55;;;;;;;25.63;16.95;;;-1.40;79.70;;;;;;5089964;28;20283;-60
2021/12/22 03:39:22;;;;;;;24.75;17.00;;;-1.40;79.30;;;;;;5089845;28;20243;-59
2021/12/22 03:41:49;;;;;;;26.50;18.25;;;-1.50;79.20;;;;;;5089912;28;20295;-64
2021/12/22 03:44:16;;;;;;;29.13;18.55;;;-1.50;79.50;;;;;;5089657;28;20702;-60
2021/12/22 03:46:44;;;;;;;26.55;18.23;;;-1.50;79.40;;;;;;5089850;28;20243;-59
2021/12/22 03:49:12;;;;;;;28.40;18.05;;;-1.40;79.40;;;;;;5088363;28;20280;-59
2021/12/22 03:51:39;;;;;;;27.67;18.13;;;-1.40;79.30;;;;;;5089745;28;20215;-59
2021/12/22 03:54:09;;;;;;;32.65;18.30;;;-1.40;79.30;;;;;;5089357;28;20215;-60
2021/12/22 03:56:36;;;;;;;24.95;17.30;;;-1.50;79.50;;;;;;5089633;28;20207;-60
2021/12/22 03:59:04;;;;;;;26.67;16.88;;;-1.60;79.50;;;;;;5089593;28;20201;-60
2021/12/22 04:01:31;;;;;;;27.80;17.08;;;-1.60;79.20;;;;;;5089430;28;20200;-59
2021/12/22 04:04:07;;;;;;;28.40;17.25;;;-1.70;79.40;;;;;;5088607;28;20331;-63
2021/12/22 04:06:34;;;;;;;25.80;16.80;;;-1.70;79.90;;;;;;5089316;28;20203;-60
2021/12/22 04:09:01;;;;;;;22.27;16.05;;;-1.60;79.60;;;;;;5089354;28;20726;-59
2021/12/22 04:11:29;;;;;;;25.05;16.48;;;-1.40;79.40;;;;;;5089341;28;20254;-59
2021/12/22 04:13:56;;;;;;;25.58;15.95;;;-1.40;79.00;;;;;;5086593;28;20214;-64
2021/12/22 04:16:23;;;;;;;23.08;15.88;;;-1.30;78.80;;;;;;5075773;28;20629;-59
2021/12/22 04:18:50;;;;;;;27.02;16.92;;;-1.30;78.80;;;;;;5075640;28;20699;-60
2021/12/22 04:21:17;;;;;;;27.17;17.50;;;-1.40;78.40;;;;;;5074362;28;20211;-60
2021/12/22 04:23:44;;;;;;;25.30;17.05;;;-1.50;78.70;;;;;;5075532;28;20678;-65
2021/12/22 04:26:12;;;;;;;26.33;18.05;;;-1.60;78.90;;;;;;5075461;28;20672;-59
2021/12/22 04:28:41;;;;;;;28.90;18.27;;;-1.60;79.20;;;;;;5075568;28;20208;-60
2021/12/22 04:31:07;;;;;;;28.65;18.63;;;-1.50;79.30;;;;;;5075477;28;20226;-61
2021/12/22 04:33:34;;;;;;;24.92;15.98;;;-1.40;79.00;;;;;;5075322;28;20292;-59
2021/12/22 04:36:01;;;;;;;25.48;16.83;;;-1.30;78.50;;;;;;5073965;28;20678;-59
2021/12/22 04:38:28;;;;;;;25.45;16.38;;;-1.30;78.60;;;;;;5075308;28;20205;-62
2021/12/22 04:40:55;;;;;;;26.58;17.48;;;-1.40;78.50;;;;;;5075355;28;20229;-60
2021/12/22 04:43:22;;;;;;;24.40;15.88;;;-1.50;78.00;;;;;;5075200;28;20233;-62
2021/12/22 04:45:50;;;;;;;23.25;16.67;;;-1.60;78.50;;;;;;5075250;28;20235;-60
2021/12/22 04:48:17;;;;;;;25.08;17.58;;;-1.60;78.80;;;;;;5075017;28;20232;-61
2021/12/22 04:50:44;;;;;;;24.65;17.35;;;-1.60;78.80;;;;;;5073932;28;20232;-60
2021/12/22 04:53:15;;;;;;;27.52;17.42;;;-1.50;78.80;;;;;;5075055;28;20292;-60
2021/12/22 04:55:42;;;;;;;31.48;17.63;;;-1.40;78.50;;;;;;5074996;28;20217;-59
2021/12/22 04:58:09;;;;;;;25.80;17.17;;;-1.40;78.10;;;;;;5075027;28;20205;-59
2021/12/22 05:00:38;;;;;;;25.25;16.80;;;-1.30;78.10;;;;;;5074819;28;20563;-60
2021/12/22 05:03:08;;;;;;;28.23;18.02;;;-1.30;77.90;;;;;;5074784;28;20268;-60
2021/12/22 05:05:34;;;;;;;23.85;14.70;;;-1.30;77.90;;;;;;5073476;28;20223;-59
2021/12/22 05:08:01;;;;;;;27.48;18.45;;;-1.30;77.80;;;;;;5074751;28;20201;-65
2021/12/22 05:10:29;;;;;;;29.40;17.45;;;-1.40;77.70;;;;;;5074655;28;20240;-61
2021/12/22 05:12:56;;;;;;;30.42;17.90;;;-1.30;77.70;;;;;;5074590;28;20239;-59
2021/12/22 05:15:25;;;;;;;24.60;17.45;;;-1.50;77.70;;;;;;5074545;28;20295;-60
2021/12/22 05:20:45;;;;;;;26.10;17.13;;;-1.70;78.30;;;;;;5057416;28;20622;-60
2021/12/22 05:23:12;;;;;;;23.67;17.38;;;-1.70;78.40;;;;;;5074419;28;20235;-64
2021/12/22 05:25:38;;;;;;;28.13;16.92;;;-1.60;78.50;;;;;;5073723;28;20300;-59
2021/12/22 05:28:06;;;;;;;29.55;19.05;;;-1.70;78.80;;;;;;5073962;28;20201;-59
2021/12/22 05:30:32;;;;;;;24.20;15.23;;;-1.70;79.00;;;;;;5074225;28;20240;-59
2021/12/22 05:32:59;;;;;;;25.90;16.75;;;-1.60;78.50;;;;;;5074249;28;20203;-60
2021/12/22 05:35:26;;;;;;;28.40;17.58;;;-1.60;78.40;;;;;;5072960;28;20215;-60
2021/12/22 05:37:54;;;;;;;25.40;17.90;;;-1.70;78.60;;;;;;5074200;28;20236;-60
2021/12/22 05:40:21;;;;;;;26.30;17.30;;;-1.70;78.90;;;;;;5073911;28;20232;-66
2021/12/22 05:42:48;;;;;;;25.30;18.13;;;-2.00;78.90;;;;;;5074067;28;20296;-61
2021/12/22 05:45:15;;;;;;;26.33;17.35;;;-2.00;79.20;;;;;;5073900;28;20324;-60
2021/12/22 05:47:42;;;;;;;21.95;15.93;;;-1.90;79.20;;;;;;5073930;28;20211;-59
2021/12/22 05:50:09;;;;;;;24.88;16.27;;;-1.90;79.40;;;;;;5072582;28;20291;-61
2021/12/22 05:52:36;;;;;;;26.05;16.83;;;-1.90;79.50;;;;;;5073779;28;20632;-60
2021/12/22 05:55:05;;;;;;;34.22;20.67;;;-1.80;79.40;;;;;;5073672;28;20228;-60
2021/12/22 05:57:32;;;;;;;28.42;19.90;;;-2.00;79.90;;;;;;5073781;28;20207;-61
2021/12/22 05:59:59;;;;;;;24.98;17.95;;;-2.00;79.60;;;;;;5073696;28;20301;-59
2021/12/22 06:02:26;;;;;;;29.05;18.85;;;-2.00;79.60;;;;;;5073467;28;20592;-59
2021/12/22 06:04:53;;;;;;;34.03;18.42;;;-1.90;79.70;;;;;;5072107;28;20229;-64
2021/12/22 06:07:20;;;;;;;29.13;17.40;;;-1.90;79.40;;;;;;5073448;28;20205;-60
2021/12/22 06:09:47;;;;;;;28.35;16.25;;;-2.00;79.90;;;;;;5073527;28;20205;-60
2021/12/22 06:12:15;;;;;;;29.77;19.17;;;-2.10;79.50;;;;;;5073595;28;20201;-60
2021/12/22 06:14:42;;;;;;;30.73;19.75;;;-2.10;80.20;;;;;;5073405;28;20207;-60
2021/12/22 06:17:09;;;;;;;30.25;19.95;;;-2.00;79.90;;;;;;5073361;28;20229;-59
2021/12/22 06:19:36;;;;;;;29.55;17.08;;;-2.00;79.90;;;;;;5072174;28;20291;-60
2021/12/22 06:22:04;;;;;;;30.25;19.20;;;-2.00;79.50;;;;;;5073167;28;20295;-65
2021/12/22 06:24:30;;;;;;;29.00;18.17;;;-2.00;79.70;;;;;;5073236;28;20315;-60
2021/12/22 06:26:57;;;;;;;27.52;18.55;;;-2.00;79.70;;;;;;5073201;28;20201;-59
2021/12/22 06:29:26;;;;;;;30.33;16.55;;;-2.00;79.60;;;;;;5073176;28;20197;-60
2021/12/22 06:31:53;;;;;;;29.80;17.30;;;-2.00;79.40;;;;;;5073248;28;20208;-60
2021/12/22 06:34:20;;;;;;;27.38;18.33;;;-1.90;79.40;;;;;;5071888;28;20754;-59
2021/12/22 06:36:54;;;;;;;32.40;19.70;;;-1.90;79.30;;;;;;5072971;28;20211;-60
2021/12/22 06:39:21;;;;;;;26.13;16.13;;;-1.90;79.30;;;;;;5073127;28;20200;-60
2021/12/22 06:41:48;;;;;;;28.25;18.23;;;-1.80;79.10;;;;;;5073083;28;20208;-66
2021/12/22 06:44:15;;;;;;;24.30;17.15;;;-1.70;78.90;;;;;;5072901;28;20247;-60
2021/12/22 06:46:44;;;;;;;28.08;18.67;;;-1.70;78.40;;;;;;5073037;28;20207;-60
2021/12/22 06:49:11;;;;;;;24.90;16.00;;;-1.70;78.40;;;;;;5071548;28;20201;-65
2021/12/22 06:51:38;;;;;;;26.83;17.38;;;-1.70;78.40;;;;;;5072878;28;20623;-60
2021/12/22 06:54:05;;;;;;;30.58;17.60;;;-1.70;78.20;;;;;;5072772;28;20221;-61
2021/12/22 06:56:32;;;;;;;31.50;17.75;;;-1.80;78.40;;;;;;5072940;28;20211;-60
2021/12/22 06:59:01;;;;;;;24.27;16.60;;;-1.90;78.50;;;;;;5072914;28;20291;-60
2021/12/22 07:01:28;;;;;;;29.27;18.88;;;-1.90;78.30;;;;;;5072816;28;20255;-61
2021/12/22 07:03:56;;;;;;;33.78;18.60;;;-1.90;78.00;;;;;;5072577;28;20294;-60
2021/12/22 07:06:23;;;;;;;26.75;18.00;;;-1.90;78.10;;;;;;5072001;28;20680;-61
2021/12/22 07:08:50;;;;;;;32.80;18.45;;;-2.00;78.30;;;;;;5072763;28;20201;-60
2021/12/22 07:11:17;;;;;;;27.30;18.17;;;-2.00;78.40;;;;;;5072833;28;20244;-62
2021/12/22 07:13:44;;;;;;;29.67;18.27;;;-2.00;78.10;;;;;;5072681;28;20304;-62
2021/12/22 07:16:11;;;;;;;25.88;18.13;;;-2.00;78.20;;;;;;5072737;28;20648;-60
2021/12/22 07:18:38;;;;;;;30.27;18.30;;;-2.00;78.50;;;;;;5072499;28;20579;-62
2021/12/22 07:21:06;;;;;;;28.98;17.67;;;-2.00;78.80;;;;;;5071367;28;20300;-61
2021/12/22 07:23:33;;;;;;;28.30;17.95;;;-2.10;78.60;;;;;;5072457;28;20667;-60
2021/12/22 07:26:00;;;;;;;31.67;17.73;;;-2.10;78.40;;;;;;5072662;28;20215;-59
2021/12/22 07:28:27;;;;;;;33.45;19.55;;;-2.30;78.60;;;;;;5072519;28;20275;-60
2021/12/22 07:30:54;;;;;;;28.55;18.83;;;-2.40;78.70;;;;;;5072484;28;20653;-61
2021/12/22 07:33:20;;;;;;;29.20;17.63;;;-2.50;79.00;;;;;;5072503;28;20225;-60
2021/12/22 07:35:53;;;;;;;26.83;16.73;;;-2.50;79.20;;;;;;5071243;28;20605;-62
2021/12/22 07:38:31;;;;;;;29.63;18.48;;;-2.50;79.40;;;;;;5072452;28;20297;-62
2021/12/22 07:41:00;;;;;;;28.48;17.45;;;-2.30;79.60;;;;;;5072541;28;20553;-61
2021/12/22 07:43:28;;;;;;;28.45;16.60;;;-2.50;79.60;;;;;;5072198;28;20727;-63
2021/12/22 07:45:56;;;;;;;29.23;16.98;;;-2.60;79.70;;;;;;5072470;28;20211;-62
2021/12/22 07:48:23;;;;;;;27.80;16.52;;;-2.60;80.10;;;;;;5072274;28;20296;-61
2021/12/22 07:50:50;;;;;;;26.05;19.23;;;-2.60;80.40;;;;;;5074018;28;20200;-65
2021/12/22 07:53:17;;;;;;;28.08;19.35;;;-2.60;80.30;;;;;;5076147;28;20650;-60
2021/12/22 07:55:45;;;;;;;28.45;18.58;;;-2.60;80.20;;;;;;5076034;28;20296;-60
2021/12/22 07:58:12;;;;;;;27.90;18.30;;;-2.50;80.10;;;;;;5075835;28;20626;-64
2021/12/22 08:00:39;;;;;;;32.47;17.45;;;-2.50;80.10;;;;;;5075953;28;20200;-60
2021/12/22 08:03:08;;;;;;;26.48;18.05;;;-2.40;79.90;;;;;;5075761;28;20240;-61
2021/12/22 08:05:35;;;;;;;29.48;18.88;;;-2.30;79.60;;;;;;5074594;28;20233;-64
2021/12/22 08:08:02;;;;;;;28.30;18.20;;;-2.20;79.50;;;;;;5075759;28;20285;-60
2021/12/22 08:10:29;;;;;;;26.48;15.80;;;-2.10;79.30;;;;;;5075742;28;20292;-61
2021/12/22 08:12:58;;;;;;;30.13;19.33;;;-2.20;79.20;;;;;;5075688;28;20429;-60
2021/12/22 08:15:25;;;;;;;30.35;18.70;;;-2.30;79.30;;;;;;5075696;28;20569;-60
2021/12/22 08:17:53;;;;;;;26.23;17.05;;;-2.20;79.20;;;;;;5075526;28;20299;-60
2021/12/22 08:20:20;;;;;;;31.25;18.08;;;-2.10;79.30;;;;;;5074271;28;20215;-60
2021/12/22 08:22:47;;;;;;;29.27;18.23;;;-2.10;79.40;;;;;;5075440;28;20204;-60
2021/12/22 08:25:14;;;;;;;30.40;19.55;;;-2.00;79.20;;;;;;5075240;28;20224;-61
2021/12/22 08:27:41;;;;;;;27.55;17.98;;;-1.90;78.90;;;;;;5075569;28;20196;-60
2021/12/22 08:30:11;;;;;;;28.52;18.77;;;-1.80;78.80;;;;;;5075347;28;20204;-61
2021/12/22 08:32:39;;;;;;;33.85;19.80;;;-1.70;78.90;;;;;;5075364;28;20280;-60
2021/12/22 08:35:07;;;;;;;30.48;19.80;;;-1.70;79.00;;;;;;5074051;28;20232;-60
2021/12/22 08:40:21;;;;;;;29.25;17.63;;;-1.60;78.60;;;;;;5075244;28;20250;-61
2021/12/22 08:42:49;;;;;;;31.42;19.38;;;-1.60;78.80;;;;;;5075453;28;20287;-61
2021/12/22 08:45:18;;;;;;;29.67;17.30;;;-1.70;78.80;;;;;;5075067;28;20263;-61
2021/12/22 08:47:45;;;;;;;28.00;17.80;;;-1.70;78.80;;;;;;5075010;28;20205;-60
2021/12/22 08:50:14;;;;;;;29.13;18.73;;;-1.60;78.90;;;;;;5073651;28;20219;-60
2021/12/22 08:52:41;;;;;;;26.40;16.60;;;-1.70;78.50;;;;;;5074928;28;20240;-64
2021/12/22 08:55:09;;;;;;;29.83;18.35;;;-1.70;79.10;;;;;;5074962;28;20228;-60
2021/12/22 08:57:36;;;;;;;27.52;17.45;;;-1.60;79.20;;;;;;5055959;28;20293;-61
2021/12/22 09:00:05;;;;;;;31.95;16.85;;;-1.60;79.00;;;;;;5053996;28;20212;-64
2021/12/22 09:02:33;;;;;;;26.90;15.30;;;-1.60;78.80;;;;;;5053880;28;20244;-60
2021/12/22 09:05:00;;;;;;;27.25;17.75;;;-1.50;78.80;;;;;;5052618;28;20329;-60
2021/12/22 09:07:27;;;;;;;27.20;16.83;;;-1.50;78.60;;;;;;5054121;28;20308;-61
2021/12/22 09:09:54;;;;;;;26.35;17.60;;;-1.40;78.60;;;;;;5053792;28;20202;-60
2021/12/22 09:12:21;;;;;;;27.05;17.00;;;-1.40;78.50;;;;;;5053929;28;20735;-61
2021/12/22 09:14:48;;;;;;;24.65;16.95;;;-1.40;78.30;;;;;;5053919;28;20303;-60
2021/12/22 09:17:15;;;;;;;26.27;17.02;;;-1.40;78.30;;;;;;5053999;28;20225;-61
2021/12/22 09:19:43;;;;;;;29.58;17.00;;;-1.30;78.60;;;;;;5052742;28;20227;-61
2021/12/22 09:22:10;;;;;;;27.17;17.15;;;-1.20;78.80;;;;;;5053748;28;20210;-61
2021/12/22 09:24:37;;;;;;;25.98;14.68;;;-1.20;79.00;;;;;;5053658;28;20228;-60
2021/12/22 09:27:04;;;;;;;33.67;17.52;;;-1.10;78.30;;;;;;5053782;28;20205;-60
2021/12/22 09:29:31;;;;;;;26.80;17.25;;;-1.20;78.20;;;;;;5053451;28;20643;-60
2021/12/22 09:31:58;;;;;;;27.70;17.02;;;-1.20;77.90;;;;;;5053305;28;20205;-61
2021/12/22 09:34:25;;;;;;;26.70;17.23;;;-1.20;78.00;;;;;;5052081;28;20303;-62
2021/12/22 09:36:53;;;;;;;28.55;16.55;;;-1.20;78.20;;;;;;5053443;28;20288;-60
2021/12/22 09:39:21;;;;;;;25.05;16.25;;;-1.10;78.10;;;;;;5053572;28;20640;-60
2021/12/22 09:41:49;;;;;;;25.95;15.75;;;-1.20;77.50;;;;;;5053218;28;20648;-60
2021/12/22 09:44:16;;;;;;;27.98;18.48;;;-1.20;78.20;;;;;;5053603;28;20312;-61
2021/12/22 09:46:44;;;;;;;29.33;17.27;;;-1.10;78.30;;;;;;5053905;28;20292;-60
2021/12/22 09:49:20;;;;;;;24.65;16.17;;;-1.00;78.00;;;;;;5052619;28;20744;-60
2021/12/22 09:54:33;;;;;;;23.20;15.98;;;-0.90;77.80;;;;;;5053945;28;20212;-62
2021/12/22 09:57:01;;;;;;;22.70;16.10;;;-0.80;77.40;;;;;;5053781;28;20308;-60
2021/12/22 09:59:28;;;;;;;23.55;14.48;;;-0.90;77.50;;;;;;5053727;28;20204;-59
2021/12/22 10:01:55;;;;;;;24.30;16.92;;;-0.80;77.80;;;;;;5053748;28;20296;-61
2021/12/22 10:04:22;;;;;;;27.80;17.10;;;-0.70;77.70;;;;;;5052165;28;20229;-60
2021/12/22 10:06:49;;;;;;;28.10;16.38;;;-0.70;77.50;;;;;;5053623;28;20233;-60
2021/12/22 10:09:23;;;;;;;23.35;14.65;;;-0.70;77.60;;;;;;5053599;28;20297;-62
2021/12/22 10:11:52;;;;;;;25.83;15.75;;;-0.70;77.60;;;;;;5053201;28;20347;-59
2021/12/22 10:14:22;;;;;;;28.95;16.70;;;-0.80;76.70;;;;;;5053293;28;20201;-60
2021/12/22 10:16:52;;;;;;;30.75;16.55;;;-0.90;77.30;;;;;;5053432;28;20727;-60
2021/12/22 10:19:19;;;;;;;25.15;17.42;;;-0.90;78.00;;;;;;5051974;28;20624;-62
2021/12/22 10:21:55;;;;;;;29.40;18.10;;;-0.80;77.40;;;;;;5053370;28;20202;-60
2021/12/22 10:24:37;;;;;;;23.50;16.75;;;-0.70;76.00;;;;;;5053275;28;20204;-59
2021/12/22 10:27:08;;;;;;;24.95;17.23;;;-0.80;75.80;;;;;;5053474;28;20679;-60
2021/12/22 10:29:35;;;;;;;25.08;14.68;;;-0.90;76.50;;;;;;5053204;28;20547;-60
2021/12/22 10:32:14;;;;;;;22.13;16.02;;;-0.80;77.00;;;;;;5053230;28;20213;-60
2021/12/22 10:35:02;;;;;;;26.08;16.73;;;-0.60;77.10;;;;;;5051784;28;20292;-60
2021/12/22 10:37:34;;;;;;;21.95;15.40;;;-0.40;76.40;;;;;;5053070;28;20206;-60
2021/12/22 10:40:01;;;;;;;24.40;16.95;;;-0.30;75.20;;;;;;5053036;28;20601;-60
2021/12/22 10:42:42;;;;;;;26.50;17.63;;;-0.20;75.00;;;;;;5053035;28;20330;-60
2021/12/22 10:45:12;;;;;;;22.98;15.85;;;-0.20;74.90;;;;;;5052974;28;20221;-60
2021/12/22 10:50:28;;;;;;;22.10;16.10;;;-0.10;75.00;;;;;;5051351;28;20296;-59
2021/12/22 10:52:55;;;;;;;25.20;17.30;;;-0.10;74.10;;;;;;5052911;28;20690;-60
2021/12/22 10:55:21;;;;;;;21.15;16.15;;;-0.10;73.80;;;;;;5052742;28;20244;-61
2021/12/22 10:57:50;;;;;;;21.65;16.15;;;-0.20;74.60;;;;;;5052910;28;20245;-60
2021/12/22 11:00:18;;;;;;;24.17;16.40;;;0.00;75.30;;;;;;5052956;28;20241;-60
2021/12/22 11:03:01;;;;;;;22.55;15.90;;;0.20;74.50;;;;;;5052754;28;20604;-62
2021/12/22 11:05:29;;;;;;;23.52;16.13;;;0.40;74.20;;;;;;5051361;28;20324;-60
2021/12/22 11:07:56;;;;;;;23.90;15.27;;;0.60;73.30;;;;;;5052570;28;20240;-60
2021/12/22 11:10:25;;;;;;;20.20;14.68;;;1.00;72.90;;;;;;5052692;28;20205;-58
2021/12/22 11:13:03;;;;;;;18.00;15.38;;;2.00;71.10;;;;;;5052512;28;20205;-59
2021/12/22 11:15:30;;;;;;;21.35;14.95;;;3.70;70.70;;;;;;5052608;28;20229;-56
2021/12/22 11:17:57;;;;;;;20.02;15.65;;;5.50;64.20;;;;;;5052560;28;20292;-60
2021/12/22 11:20:25;;;;;;;20.00;17.15;;;6.90;61.20;;;;;;5051131;28;20211;-59
2021/12/22 11:22:57;;;;;;;20.15;16.40;;;8.30;57.80;;;;;;5052528;28;20639;-58
2021/12/22 11:25:25;;;;;;;19.63;17.50;;;9.40;50.70;;;;;;5054837;28;20225;-57
2021/12/22 11:27:53;;;;;;;22.60;17.33;;;10.30;53.60;;;;;;5056625;28;20212;-57
2021/12/22 11:30:22;;;;;;;18.65;16.67;;;10.90;47.10;;;;;;5056517;28;20298;-56
2021/12/22 11:32:50;;;;;;;25.17;18.27;;;11.00;45.60;;;;;;5056364;28;20207;-59
2021/12/22 11:35:17;;;;;;;18.75;16.65;;;10.10;45.90;;;;;;5055440;28;20310;-59
2021/12/22 11:37:45;;;;;;;23.40;18.45;;;10.30;50.20;;;;;;5056535;28;20280;-58
2021/12/22 11:40:14;;;;;;;19.17;17.15;;;10.90;48.60;;;;;;5056284;28;20747;-57
2021/12/22 11:42:42;;;;;;;19.60;17.50;;;11.30;44.70;;;;;;5056199;28;20588;-58
2021/12/22 11:45:12;;;;;;;21.08;18.80;;;11.70;45.70;;;;;;5056195;28;20559;-57
2021/12/22 11:47:42;;;;;;;20.70;17.23;;;11.90;46.60;;;;;;5056042;28;20212;-58
2021/12/22 11:50:16;;;;;;;24.90;18.88;;;12.40;41.60;;;;;;5054774;28;20205;-57
2021/12/22 11:52:52;;;;;;;20.13;17.92;;;12.60;46.10;;;;;;5056085;28;20236;-57
2021/12/22 11:55:22;;;;;;;22.45;18.05;;;12.70;42.60;;;;;;5056063;28;20251;-58
2021/12/22 11:57:50;;;;;;;22.20;17.70;;;13.00;44.30;;;;;;5055918;28;20648;-61
2021/12/22 12:00:22;;;;;;;21.42;18.23;;;13.20;45.00;;;;;;5055961;28;20293;-58
2021/12/22 12:02:51;;;;;;;19.77;17.60;;;13.60;44.30;;;;;;5055712;28;20236;-60
2021/12/22 12:05:20;;;;;;;18.20;16.30;;;14.60;38.70;;;;;;5054819;28;20225;-58
2021/12/22 12:07:52;;;;;;;21.48;19.13;;;14.40;39.30;;;;;;5055951;28;20237;-60
2021/12/22 12:10:40;;;;;;;21.33;19.10;;;14.20;37.90;;;;;;5055764;28;20208;-60
2021/12/22 12:13:27;;;;;;;21.98;19.58;;;14.60;41.00;;;;;;5055863;28;20293;-60
2021/12/22 12:22:31;;;;;;;20.97;18.77;;;17.20;37.00;;;;;;4994282;28;20543;-60
2021/12/22 12:25:10;;;;;;;22.00;19.83;;;17.10;31.30;;;;;;5050897;28;20448;-60
2021/12/22 12:27:46;;;;;;;20.00;17.98;;;16.50;35.10;;;;;;5055557;28;20530;-59
2021/12/22 12:30:24;;;;;;;20.25;18.23;;;16.20;37.90;;;;;;5055464;28;20204;-57
2021/12/22 12:33:22;;;;;;;21.98;19.83;;;15.10;34.20;;;;;;5055439;28;20292;-57
2021/12/22 12:35:53;;;;;;;22.85;20.45;;;13.50;38.80;;;;;;5053550;28;20224;-58
2021/12/22 12:38:24;;;;;;;20.50;18.30;;;12.50;39.30;;;;;;5055397;28;20288;-59
2021/12/22 12:41:27;;;;;;;21.48;19.13;;;11.50;39.30;;;;;;5055348;28;20205;-59
2021/12/22 12:44:03;;;;;;;24.38;19.27;;;11.10;43.20;;;;;;5055229;28;20204;-61
2021/12/22 12:46:40;;;;;;;25.33;19.70;;;11.70;42.80;;;;;;5055014;28;20323;-60
2021/12/22 12:49:33;;;;;;;23.05;18.35;;;11.40;42.40;;;;;;5053680;28;20296;-58
2021/12/22 12:52:07;;;;;;;22.45;18.42;;;10.70;43.00;;;;;;5054994;28;20207;-56
2021/12/22 12:54:39;;;;;;;24.08;19.42;;;10.20;42.20;;;;;;5054845;28;20259;-56
2021/12/22 12:57:23;;;;;;;21.15;18.40;;;9.20;44.50;;;;;;5054904;28;20205;-57
2021/12/22 12:59:51;;;;;;;22.38;16.63;;;8.50;46.00;;;;;;5054750;28;20292;-55
2021/12/22 13:02:24;;;;;;;21.15;17.42;;;8.10;47.30;;;;;;5054569;28;20271;-57